createdAt,value
2023-05-25T00:00:19.040Z,16.40
2023-05-25T00:05:21.092Z,16.40
2023-05-25T00:10:24.822Z,16.40
2023-05-25T00:15:26.894Z,16.40
2023-05-25T00:20:28.938Z,16.30
2023-05-25T00:25:30.837Z,16.30
2023-05-25T00:30:32.782Z,16.30
2023-05-25T00:35:34.819Z,16.30
2023-05-25T00:40:38.479Z,16.30
2023-05-25T00:45:40.422Z,16.20
2023-05-25T00:50:44.365Z,16.30
2023-05-25T00:55:49.955Z,16.20
2023-05-25T01:00:56.328Z,16.20
2023-05-25T01:05:58.986Z,16.10
2023-05-25T01:11:03.362Z,16.00
2023-05-25T01:16:06.811Z,16.00
2023-05-25T01:21:42.174Z,16.00
2023-05-25T01:26:48.875Z,15.90
2023-05-25T01:31:54.231Z,16.00
2023-05-25T01:36:56.988Z,15.90
2023-05-25T01:41:59.165Z,15.80
2023-05-25T01:47:10.649Z,15.80
2023-05-25T01:52:12.507Z,15.70
2023-05-25T01:57:17.662Z,15.60
2023-05-25T02:02:21.130Z,15.60
2023-05-25T02:07:23.573Z,15.60
2023-05-25T02:12:25.969Z,15.70
2023-05-25T02:17:28.115Z,15.60
2023-05-25T02:22:30.059Z,15.60
2023-05-25T02:27:31.925Z,15.60
2023-05-25T02:32:33.897Z,15.50
2023-05-25T02:37:36.562Z,15.40
2023-05-25T02:42:38.508Z,15.40
2023-05-25T02:47:40.902Z,15.40
2023-05-25T02:52:43.063Z,15.40
2023-05-25T02:57:45.146Z,15.40
2023-05-25T03:02:53.055Z,15.40
2023-05-25T03:07:55.021Z,15.30
2023-05-25T03:12:56.925Z,15.40
2023-05-25T03:18:01.439Z,15.30
2023-05-25T03:23:06.907Z,15.30
2023-05-25T03:28:09.483Z,15.30
2023-05-25T03:33:13.831Z,15.20
2023-05-25T03:38:19.554Z,15.00
2023-05-25T03:43:22.025Z,15.00
2023-05-25T03:48:24.302Z,15.00
2023-05-25T03:53:26.197Z,14.90
2023-05-25T03:58:28.097Z,14.90
2023-05-25T04:03:33.096Z,14.90
2023-05-25T04:08:35.195Z,14.80
2023-05-25T04:13:40.108Z,14.80
2023-05-25T04:18:43.390Z,14.80
2023-05-25T04:23:45.598Z,14.80
2023-05-25T04:28:48.297Z,14.80
2023-05-25T04:34:16.623Z,14.70
2023-05-25T04:39:38.117Z,14.80
2023-05-25T04:44:40.324Z,14.80
2023-05-25T04:49:42.977Z,14.80
2023-05-25T04:54:44.931Z,14.90
2023-05-25T04:59:49.204Z,14.90
2023-05-25T05:04:53.680Z,14.90
2023-05-25T05:09:56.099Z,15.00
2023-05-25T05:14:58.406Z,15.00
2023-05-25T05:20:01.104Z,15.10
2023-05-25T05:25:03.644Z,15.10
2023-05-25T05:30:06.376Z,15.10
2023-05-25T05:35:08.886Z,15.20
2023-05-25T05:40:18.541Z,15.30
2023-05-25T05:45:21.829Z,15.30
2023-05-25T05:50:26.417Z,15.30
2023-05-25T05:55:28.523Z,15.40
2023-05-25T06:00:30.907Z,15.50
2023-05-25T06:05:32.920Z,15.60
2023-05-25T06:10:36.031Z,15.70
2023-05-25T06:15:38.514Z,15.80
2023-05-25T06:20:45.517Z,15.90
2023-05-25T06:25:47.901Z,16.00
2023-05-25T06:30:50.084Z,16.10
2023-05-25T06:35:52.708Z,16.20
2023-05-25T06:40:54.650Z,16.30
2023-05-25T06:45:56.725Z,16.40
2023-05-25T06:50:58.757Z,16.50
2023-05-25T06:56:00.815Z,16.60
2023-05-25T07:01:02.986Z,16.70
2023-05-25T07:06:06.147Z,16.80
2023-05-25T07:11:10.652Z,17.00
2023-05-25T07:16:12.577Z,17.10
2023-05-25T07:21:14.522Z,17.30
2023-05-25T07:26:16.735Z,17.40
2023-05-25T07:31:18.647Z,17.50
2023-05-25T07:36:20.722Z,17.60
2023-05-25T07:41:22.899Z,17.70
2023-05-25T07:46:25.982Z,17.80
2023-05-25T07:51:30.203Z,17.90
2023-05-25T07:56:32.101Z,18.10
2023-05-25T08:01:34.002Z,18.30
2023-05-25T08:06:35.870Z,18.50
2023-05-25T08:11:38.054Z,18.60
2023-05-25T08:16:40.113Z,18.70
2023-05-25T08:21:42.199Z,18.90
2023-05-25T08:26:54.298Z,19.10
2023-05-25T08:31:57.551Z,19.30
2023-05-25T08:36:59.680Z,19.50
2023-05-25T08:42:02.036Z,19.60
2023-05-25T08:47:07.480Z,19.70
2023-05-25T08:52:18.220Z,19.80
2023-05-25T08:57:23.725Z,20.10
2023-05-25T09:02:52.518Z,20.30
2023-05-25T09:07:54.984Z,20.40
2023-05-25T09:12:57.721Z,20.40
2023-05-25T09:18:00.088Z,20.50
2023-05-25T09:23:03.348Z,20.70
2023-05-25T09:28:24.669Z,20.80
2023-05-25T09:33:28.822Z,21.10
2023-05-25T09:38:31.035Z,21.30
2023-05-25T09:48:43.256Z,21.50
2023-05-25T09:53:46.050Z,21.70
2023-05-25T09:58:48.082Z,22.00
2023-05-25T10:04:04.123Z,22.10
2023-05-25T10:09:11.220Z,22.30
2023-05-25T10:14:16.910Z,22.50
2023-05-25T10:19:27.140Z,22.70
2023-05-25T10:24:42.685Z,22.90
2023-05-25T10:29:47.921Z,23.00
2023-05-25T10:34:52.419Z,23.10
2023-05-25T10:39:57.100Z,23.20
2023-05-25T10:44:59.796Z,23.20
2023-05-25T10:50:03.029Z,23.10
2023-05-25T10:55:05.596Z,23.20
2023-05-25T11:00:08.985Z,23.30
2023-05-25T11:05:26.549Z,23.30
2023-05-25T11:10:50.551Z,23.10
2023-05-25T11:16:23.732Z,23.30
2023-05-25T11:21:31.246Z,23.40
2023-05-25T11:26:34.754Z,23.60
2023-05-25T11:31:42.449Z,23.60
2023-05-25T11:36:45.827Z,23.60
2023-05-25T11:42:11.280Z,23.40
2023-05-25T11:47:14.688Z,23.70
2023-05-25T11:52:22.176Z,23.90
2023-05-25T11:57:25.729Z,24.20
2023-05-25T12:02:28.153Z,24.40
2023-05-25T12:07:31.795Z,24.20
2023-05-25T12:12:41.296Z,24.30
2023-05-25T12:17:44.808Z,24.50
2023-05-25T12:22:47.470Z,24.70
2023-05-25T12:27:51.321Z,24.60
2023-05-25T12:32:55.088Z,24.70
2023-05-25T12:38:21.538Z,24.80
2023-05-25T12:43:23.878Z,24.80
2023-05-25T12:48:29.089Z,24.80
2023-05-25T12:53:31.432Z,24.90
2023-05-25T12:58:33.668Z,25.10
2023-05-25T13:03:35.710Z,25.20
2023-05-25T13:08:39.174Z,25.20
2023-05-25T13:13:41.140Z,25.20
2023-05-25T13:18:43.225Z,25.20
2023-05-25T13:23:45.497Z,25.40
2023-05-25T13:28:50.046Z,25.70
2023-05-25T13:33:52.143Z,25.90
2023-05-25T13:38:55.435Z,25.90
2023-05-25T13:43:58.610Z,26.00
2023-05-25T13:49:04.261Z,25.90
2023-05-25T13:54:06.590Z,26.10
2023-05-25T13:59:09.825Z,26.20
2023-05-25T14:04:14.864Z,26.20
2023-05-25T14:09:17.320Z,26.20
2023-05-25T14:14:30.871Z,26.10
2023-05-25T14:19:35.164Z,26.20
2023-05-25T14:24:37.072Z,26.30
2023-05-25T14:29:39.096Z,26.30
2023-05-25T14:34:41.640Z,26.30
2023-05-25T14:39:43.495Z,26.30
2023-05-25T14:44:45.401Z,26.30
2023-05-25T14:49:47.246Z,26.20
2023-05-25T14:54:49.197Z,26.20
2023-05-25T14:59:51.095Z,26.20
2023-05-25T15:04:54.545Z,26.20
2023-05-25T15:09:56.473Z,26.20
2023-05-25T15:14:58.394Z,26.40
2023-05-25T15:20:00.750Z,26.40
2023-05-25T15:25:02.930Z,26.30
2023-05-25T15:30:07.203Z,26.30
2023-05-25T15:35:09.487Z,26.40
2023-05-25T15:40:12.142Z,26.40
2023-05-25T15:45:14.091Z,26.40
2023-05-25T15:50:16.478Z,26.40
2023-05-25T15:55:18.450Z,26.30
2023-05-25T16:00:20.602Z,26.40
2023-05-25T16:05:22.721Z,26.40
2023-05-25T16:10:24.589Z,26.40
2023-05-25T16:15:26.687Z,26.40
2023-05-25T16:20:28.637Z,26.40
2023-05-25T16:25:30.636Z,26.40
2023-05-25T16:30:32.472Z,26.40
2023-05-25T16:35:34.395Z,26.40
2023-05-25T16:40:37.160Z,26.40
2023-05-25T16:45:39.070Z,26.40
2023-05-25T16:50:44.252Z,26.50
2023-05-25T16:55:46.237Z,26.50
2023-05-25T17:00:48.221Z,26.30
2023-05-25T17:05:52.362Z,26.20
2023-05-25T17:10:56.597Z,26.20
2023-05-25T17:15:58.755Z,26.20
2023-05-25T17:21:01.896Z,26.40
2023-05-25T17:26:04.141Z,26.40
2023-05-25T17:31:06.343Z,26.50
2023-05-25T17:36:08.361Z,26.20
2023-05-25T17:41:10.498Z,26.20
2023-05-25T17:46:12.365Z,26.20
2023-05-25T17:51:14.594Z,26.20
2023-05-25T17:56:16.473Z,26.20
2023-05-25T18:01:18.448Z,26.20
2023-05-25T18:06:20.823Z,26.20
2023-05-25T18:11:23.359Z,26.20
2023-05-25T18:16:25.436Z,26.10
2023-05-25T18:21:27.351Z,26.10
2023-05-25T18:26:29.364Z,26.10
2023-05-25T18:31:32.553Z,26.00
2023-05-25T18:36:38.235Z,25.90
2023-05-25T18:41:41.860Z,25.90
2023-05-25T18:46:45.270Z,25.90
2023-05-25T18:51:47.354Z,25.80
2023-05-25T18:56:49.247Z,25.70
2023-05-25T19:01:51.381Z,25.60
2023-05-25T19:06:53.322Z,25.40
2023-05-25T19:11:55.149Z,25.20
2023-05-25T19:16:57.042Z,25.20
2023-05-25T19:21:58.995Z,25.00
2023-05-25T19:27:04.429Z,24.80
2023-05-25T19:32:06.852Z,24.60
2023-05-25T19:37:11.302Z,24.50
2023-05-25T19:42:14.024Z,24.40
2023-05-25T19:47:15.950Z,24.30
2023-05-25T19:52:18.231Z,24.20
2023-05-25T19:57:20.993Z,24.20
2023-05-25T20:02:23.008Z,24.20
2023-05-25T20:07:25.052Z,24.20
2023-05-25T20:12:26.905Z,24.10
2023-05-25T20:17:28.724Z,24.10
2023-05-25T20:22:32.049Z,24.00
2023-05-25T20:27:34.734Z,23.90
2023-05-25T20:32:36.998Z,23.80
2023-05-25T20:37:39.353Z,23.70
2023-05-25T20:42:41.451Z,23.60
2023-05-25T20:47:43.418Z,23.40
2023-05-25T20:52:45.470Z,23.40
2023-05-25T20:57:47.524Z,23.30
2023-05-25T21:02:49.815Z,23.20
2023-05-25T21:07:52.050Z,23.20
2023-05-25T21:12:53.964Z,23.00
2023-05-25T21:17:56.900Z,23.00
2023-05-25T21:22:58.901Z,23.00
2023-05-25T21:28:00.841Z,22.80
2023-05-25T21:33:02.882Z,22.70
2023-05-25T21:38:04.939Z,22.60
2023-05-25T21:43:09.201Z,22.50
2023-05-25T21:48:13.902Z,22.30
2023-05-25T21:53:15.929Z,22.20
2023-05-25T21:58:18.325Z,22.00
2023-05-25T22:03:20.425Z,21.90
2023-05-25T22:08:22.426Z,21.80
2023-05-25T22:13:24.347Z,21.80
2023-05-25T22:18:26.412Z,21.70
2023-05-25T22:23:28.389Z,21.80
2023-05-25T22:28:30.367Z,21.70
2023-05-25T22:33:32.286Z,21.60
2023-05-25T22:38:36.279Z,21.40
2023-05-25T22:43:38.140Z,21.30
2023-05-25T22:48:40.663Z,21.20
2023-05-25T22:53:42.991Z,21.10
2023-05-25T22:58:44.921Z,21.00
2023-05-25T23:03:46.948Z,20.90
2023-05-25T23:08:49.025Z,20.90
2023-05-25T23:13:51.650Z,20.80
2023-05-25T23:18:53.788Z,20.70
2023-05-25T23:23:55.951Z,20.60
2023-05-25T23:28:57.897Z,20.50
2023-05-25T23:33:59.936Z,20.40
2023-05-25T23:39:01.833Z,20.30
2023-05-25T23:44:03.754Z,20.20
2023-05-25T23:49:05.662Z,20.10
2023-05-25T23:54:07.657Z,20.10
2023-05-25T23:59:09.610Z,20.00
